DW4005 Mahon ES current weather conditions

sailwx.info

Wind from 088 at 1 knots gusting 4

Air temperature 23.9° C
Dewpoint 20.2° C

Last reported at 2016-Jun-30 18:40 UTC.
Time now 2016-Jun-30 19:35 UTC

Location: N 39°56' E 004°08'.
View on Google Maps.

See reports from other nearby stations

  
Tides and Currents Weather Stations Pressure Air Temp Water Temp Dewpoint Dewpoint Depression Visibility Wind Speed Wind Dir Waves Ship Positions
date/time (UTC)wind fromknots sea level pressurealtimeterstation pressurevisibilityair tempwater tempwave heightnotes
2016-Jun-30 18:40 088 1 gusting 4 23.9
2016-Jun-30 18:25 088 2 gusting 5 24.4
2016-Jun-30 18:11 088 24.4
2016-Jun-30 17:55 088 0 gusting 5 25.0
2016-Jun-30 17:40 052 1 gusting 5 25.0
2016-Jun-30 17:25 051 0 gusting 5 25.6
2016-Jun-30 17:10 057 1 gusting 5 25.0
2016-Jun-30 16:55 058 25.6
2016-Jun-30 16:40 045 2 gusting 6 25.6
2016-Jun-30 16:25 054 1 gusting 6 25.6
2016-Jun-30 16:10 042 2 gusting 6 25.6
2016-Jun-30 15:55 042 1 gusting 6 25.6
2016-Jun-30 15:41 053 2 gusting 7 26.1
2016-Jun-30 15:25 077 2 gusting 6 26.1
2016-Jun-30 15:10 069 3 gusting 6 26.1
2016-Jun-30 14:55 032 1 gusting 6 26.7
2016-Jun-30 14:40 032 2 gusting 6 26.7
2016-Jun-30 14:26 042 1 gusting 6 26.7
2016-Jun-30 14:10 028 1 gusting 6 27.8
2016-Jun-30 13:55 055 1 gusting 6 26.7
2016-Jun-30 13:40 041 2 gusting 6 26.7
2016-Jun-30 13:25 040 2 gusting 6 27.8
2016-Jun-30 13:10 341 1 gusting 7 28.3
2016-Jun-30 12:55 030 0 gusting 6 28.3
2016-Jun-30 12:40 038 1 gusting 6 28.3
2016-Jun-30 12:25 013 1 gusting 6 27.8
2016-Jun-30 12:10 051 1 gusting 5 27.8
2016-Jun-30 11:55 027 2 gusting 6 28.3
2016-Jun-30 11:40 016 1 gusting 6 28.3
2016-Jun-30 11:25 039 0 gusting 6 28.3
2016-Jun-30 11:10 042 2 gusting 6 28.3
2016-Jun-30 10:55 021 0 gusting 6 27.8
2016-Jun-30 10:40 036 1 gusting 6 27.8
2016-Jun-30 10:25 310 0 gusting 5 28.9
2016-Jun-30 10:10 309 1 gusting 6 27.8
2016-Jun-30 09:55 310 3 gusting 6 28.9
2016-Jun-30 09:40 311 0 gusting 5 27.8
2016-Jun-30 09:25 312 26.7
2016-Jun-30 09:10 312 0 gusting 3 25.0
2016-Jun-30 08:55 312 2 gusting 5 24.4
2016-Jun-30 08:40 317 25.0
2016-Jun-30 08:25 317 25.0
2016-Jun-30 08:10 317 25.0
2016-Jun-30 07:55 317 25.6
2016-Jun-30 07:40 062 0 gusting 3 25.6
2016-Jun-30 07:25 090 24.4
2016-Jun-30 07:10 104 23.3
2016-Jun-30 06:55 113 2 gusting 7 23.9
2016-Jun-30 06:40 128 23.9
2016-Jun-30 06:25 185 22.8
2016-Jun-30 06:10 248 22.2
2016-Jun-30 05:55 265 21.7
2016-Jun-30 05:40 269 21.7
2016-Jun-30 05:24 269 20.6
2016-Jun-30 05:10 269 20.0
2016-Jun-30 04:54 269 20.0
2016-Jun-30 04:39
2016-Jun-30 04:24
2016-Jun-30 04:09
2016-Jun-30 03:54
2016-Jun-30 03:39
2016-Jun-30 03:24
2016-Jun-30 03:09
2016-Jun-30 02:54
2016-Jun-30 02:39
2016-Jun-30 02:24
2016-Jun-30 02:09
2016-Jun-30 01:54
2016-Jun-30 01:39
2016-Jun-30 01:23
2016-Jun-30 01:08
2016-Jun-30 00:53
2016-Jun-30 00:38
2016-Jun-30 00:23
2016-Jun-30 00:08
2016-Jun-29 23:53
2016-Jun-29 23:38
2016-Jun-29 23:23
2016-Jun-29 23:08
2016-Jun-29 22:53
2016-Jun-29 22:38
2016-Jun-29 22:23
2016-Jun-29 22:07
2016-Jun-29 21:52
2016-Jun-29 21:37
2016-Jun-29 21:22
2016-Jun-29 21:07
2016-Jun-29 20:52
2016-Jun-29 20:37
2016-Jun-29 20:22
2016-Jun-29 20:07
2016-Jun-29 19:52
2016-Jun-29 19:37
2016-Jun-29 19:22
2016-Jun-29 19:07
2016-Jun-29 18:51 084 23.9
2016-Jun-29 18:37 084 23.9
2016-Jun-29 18:21 084 0 gusting 4 23.9
2016-Jun-29 18:06 084 23.9
2016-Jun-29 17:52 084 23.3
2016-Jun-29 17:36 084 23.3
2016-Jun-29 17:22 084 23.3
2016-Jun-29 17:06 084 23.3
2016-Jun-29 16:51 084 23.3
2016-Jun-29 16:36 086 23.3
2016-Jun-29 16:21 086 23.3
2016-Jun-29 16:06 086 23.9
2016-Jun-29 15:51 091 23.9
2016-Jun-29 15:36 082 0 gusting 4 24.4
2016-Jun-29 15:21 098 0 gusting 6 23.9
2016-Jun-29 15:06 092 0 gusting 5 23.9
2016-Jun-29 14:51 054 2 gusting 6 25.0
2016-Jun-29 14:36 062 2 gusting 8 25.6
2016-Jun-29 14:21 027 24.4
2016-Jun-29 14:06 027 25.0
2016-Jun-29 13:51 036 0 gusting 4 25.0
2016-Jun-29 13:36 040 2 gusting 6 25.6
2016-Jun-29 13:21 031 1 gusting 6 25.6
2016-Jun-29 13:06 029 1 gusting 6 25.0
2016-Jun-29 12:51 115 3 gusting 6 25.0
2016-Jun-29 12:36 091 1 gusting 6 25.0
2016-Jun-29 12:21 062 3 gusting 6 26.1
2016-Jun-29 12:06 317 28.3
2016-Jun-29 11:51 317 27.8
2016-Jun-29 11:36 317 0 gusting 3 26.7
2016-Jun-29 11:21 317 25.6
2016-Jun-29 11:06 317 1 gusting 6 25.0
2016-Jun-29 10:51 300 1 gusting 6 25.0
2016-Jun-29 10:36 226 0 gusting 6 25.0
2016-Jun-29 10:21 242 2 gusting 7 26.1
2016-Jun-29 10:06 237 3 gusting 6 26.1
2016-Jun-29 09:51 252 2 gusting 9 25.0
2016-Jun-29 09:36 271 1 gusting 6 23.9
2016-Jun-29 09:21 076 1 gusting 6 22.8
2016-Jun-29 09:06 126 3 gusting 6 22.2
2016-Jun-29 08:51 280 22.8
2016-Jun-29 08:36 043 22.8
2016-Jun-29 08:21 043 22.8
2016-Jun-29 08:06 042 22.8
2016-Jun-29 07:51 084 22.8
2016-Jun-29 07:36 084 22.2
2016-Jun-29 07:21 084 22.8
2016-Jun-29 07:06 103 22.2
2016-Jun-29 06:51 103 22.2
2016-Jun-29 06:36 103 21.7
2016-Jun-29 06:21 103 21.1
2016-Jun-29 06:06 103 21.1
2016-Jun-29 05:51 103 20.6
2016-Jun-29 05:36
2016-Jun-29 05:20
2016-Jun-29 05:05
2016-Jun-29 04:50
2016-Jun-29 04:35
2016-Jun-29 04:20
2016-Jun-29 04:05
2016-Jun-29 03:50
2016-Jun-29 03:35
2016-Jun-29 03:20
2016-Jun-29 03:05
2016-Jun-29 02:50
2016-Jun-29 02:35
2016-Jun-29 02:20
2016-Jun-29 02:04
2016-Jun-29 01:49
2016-Jun-29 01:34
2016-Jun-29 01:19
2016-Jun-29 01:04
2016-Jun-29 00:49
2016-Jun-29 00:34
2016-Jun-29 00:19
2016-Jun-29 00:04
2016-Jun-28 23:49
2016-Jun-28 23:34
2016-Jun-28 23:19
2016-Jun-28 23:04
2016-Jun-28 22:48
2016-Jun-28 22:34
2016-Jun-28 22:18
2016-Jun-28 22:03
2016-Jun-28 21:48
2016-Jun-28 21:33
2016-Jun-28 21:18
2016-Jun-28 21:03
2016-Jun-28 20:48
2016-Jun-28 20:33
2016-Jun-28 20:18
2016-Jun-28 20:03
2016-Jun-28 19:48
2016-Jun-28 19:33
2016-Jun-28 19:17
2016-Jun-28 19:02 116 0 gusting 6 23.3